sensor_id;sensor_type;location;lat;lon;timestamp;P1;durP1;ratioP1;P2;durP2;ratioP2
4812;SDS011;2420;51.202;8.698;2022-08-19T00:01:09;10.00;;;8.73;;
4812;SDS011;2420;51.202;8.698;2022-08-19T00:03:35;13.60;;;9.20;;
4812;SDS011;2420;51.202;8.698;2022-08-19T00:06:00;12.32;;;8.63;;
4812;SDS011;2420;51.202;8.698;2022-08-19T00:08:26;10.93;;;9.48;;
4812;SDS011;2420;51.202;8.698;2022-08-19T00:10:51;12.48;;;9.45;;
4812;SDS011;2420;51.202;8.698;2022-08-19T00:13:17;9.98;;;8.35;;
4812;SDS011;2420;51.202;8.698;2022-08-19T00:15:43;11.90;;;8.82;;
4812;SDS011;2420;51.202;8.698;2022-08-19T00:18:09;12.88;;;9.27;;
4812;SDS011;2420;51.202;8.698;2022-08-19T00:20:35;13.07;;;9.38;;
4812;SDS011;2420;51.202;8.698;2022-08-19T00:23:03;11.02;;;8.85;;
4812;SDS011;2420;51.202;8.698;2022-08-19T00:25:28;14.10;;;9.43;;
4812;SDS011;2420;51.202;8.698;2022-08-19T00:27:54;12.45;;;9.63;;
4812;SDS011;2420;51.202;8.698;2022-08-19T00:30:20;11.43;;;9.10;;
4812;SDS011;2420;51.202;8.698;2022-08-19T00:32:46;12.57;;;9.02;;
4812;SDS011;2420;51.202;8.698;2022-08-19T00:35:11;11.98;;;9.13;;
4812;SDS011;2420;51.202;8.698;2022-08-19T00:37:37;13.23;;;9.30;;
4812;SDS011;2420;51.202;8.698;2022-08-19T00:40:05;12.50;;;9.00;;
4812;SDS011;2420;51.202;8.698;2022-08-19T00:42:32;9.93;;;8.25;;
4812;SDS011;2420;51.202;8.698;2022-08-19T00:44:58;11.43;;;9.48;;
4812;SDS011;2420;51.202;8.698;2022-08-19T00:47:23;10.38;;;8.77;;
4812;SDS011;2420;51.202;8.698;2022-08-19T00:49:51;12.75;;;9.35;;
4812;SDS011;2420;51.202;8.698;2022-08-19T00:52:30;10.93;;;8.90;;
4812;SDS011;2420;51.202;8.698;2022-08-19T00:54:59;13.15;;;9.10;;
4812;SDS011;2420;51.202;8.698;2022-08-19T00:57:33;12.43;;;9.02;;
4812;SDS011;2420;51.202;8.698;2022-08-19T01:00:03;10.73;;;8.70;;
4812;SDS011;2420;51.202;8.698;2022-08-19T01:02:32;10.07;;;8.02;;
4812;SDS011;2420;51.202;8.698;2022-08-19T01:04:58;11.73;;;9.07;;
4812;SDS011;2420;51.202;8.698;2022-08-19T01:07:26;9.75;;;8.30;;
4812;SDS011;2420;51.202;8.698;2022-08-19T01:09:52;11.05;;;7.93;;
4812;SDS011;2420;51.202;8.698;2022-08-19T01:12:18;11.35;;;8.88;;
4812;SDS011;2420;51.202;8.698;2022-08-19T01:14:44;9.77;;;8.05;;
4812;SDS011;2420;51.202;8.698;2022-08-19T01:17:10;10.15;;;8.05;;
4812;SDS011;2420;51.202;8.698;2022-08-19T01:19:38;10.85;;;8.05;;
4812;SDS011;2420;51.202;8.698;2022-08-19T01:22:08;12.13;;;8.68;;
4812;SDS011;2420;51.202;8.698;2022-08-19T01:24:56;11.52;;;8.32;;
4812;SDS011;2420;51.202;8.698;2022-08-19T01:27:21;9.43;;;7.07;;
4812;SDS011;2420;51.202;8.698;2022-08-19T01:29:47;9.90;;;7.90;;
4812;SDS011;2420;51.202;8.698;2022-08-19T01:32:13;10.32;;;8.52;;
4812;SDS011;2420;51.202;8.698;2022-08-19T01:34:41;10.00;;;7.93;;
4812;SDS011;2420;51.202;8.698;2022-08-19T01:37:09;11.70;;;8.20;;
4812;SDS011;2420;51.202;8.698;2022-08-19T01:39:37;12.38;;;8.63;;
4812;SDS011;2420;51.202;8.698;2022-08-19T01:42:04;9.80;;;7.72;;
4812;SDS011;2420;51.202;8.698;2022-08-19T01:44:32;10.43;;;7.47;;
4812;SDS011;2420;51.202;8.698;2022-08-19T01:46:58;8.80;;;7.78;;
4812;SDS011;2420;51.202;8.698;2022-08-19T01:49:24;11.10;;;7.95;;
4812;SDS011;2420;51.202;8.698;2022-08-19T01:51:51;11.40;;;8.48;;
4812;SDS011;2420;51.202;8.698;2022-08-19T01:54:19;9.27;;;8.18;;
4812;SDS011;2420;51.202;8.698;2022-08-19T01:56:45;9.82;;;8.23;;
4812;SDS011;2420;51.202;8.698;2022-08-19T01:59:12;9.65;;;8.23;;
4812;SDS011;2420;51.202;8.698;2022-08-19T02:01:42;8.80;;;7.32;;
4812;SDS011;2420;51.202;8.698;2022-08-19T02:04:08;11.10;;;9.05;;
4812;SDS011;2420;51.202;8.698;2022-08-19T02:06:33;9.68;;;8.15;;
4812;SDS011;2420;51.202;8.698;2022-08-19T02:08:59;9.50;;;7.65;;
4812;SDS011;2420;51.202;8.698;2022-08-19T02:11:27;10.48;;;8.02;;
4812;SDS011;2420;51.202;8.698;2022-08-19T02:13:56;10.45;;;8.25;;
4812;SDS011;2420;51.202;8.698;2022-08-19T02:16:23;10.18;;;8.15;;
4812;SDS011;2420;51.202;8.698;2022-08-19T02:18:49;8.75;;;7.75;;
4812;SDS011;2420;51.202;8.698;2022-08-19T02:21:15;11.18;;;8.45;;
4812;SDS011;2420;51.202;8.698;2022-08-19T02:23:45;9.68;;;7.57;;
4812;SDS011;2420;51.202;8.698;2022-08-19T02:26:11;11.80;;;7.55;;
4812;SDS011;2420;51.202;8.698;2022-08-19T02:28:37;9.52;;;8.18;;
4812;SDS011;2420;51.202;8.698;2022-08-19T02:31:03;9.63;;;7.97;;
4812;SDS011;2420;51.202;8.698;2022-08-19T02:33:34;10.23;;;7.50;;
4812;SDS011;2420;51.202;8.698;2022-08-19T02:35:59;9.90;;;8.55;;
4812;SDS011;2420;51.202;8.698;2022-08-19T02:38:29;11.93;;;9.38;;
4812;SDS011;2420;51.202;8.698;2022-08-19T02:40:56;9.10;;;8.20;;
4812;SDS011;2420;51.202;8.698;2022-08-19T02:43:24;10.82;;;8.55;;
4812;SDS011;2420;51.202;8.698;2022-08-19T02:45:51;10.57;;;7.85;;
4812;SDS011;2420;51.202;8.698;2022-08-19T02:48:17;10.75;;;8.57;;
4812;SDS011;2420;51.202;8.698;2022-08-19T02:50:44;10.88;;;8.43;;
4812;SDS011;2420;51.202;8.698;2022-08-19T02:53:11;11.80;;;8.63;;
4812;SDS011;2420;51.202;8.698;2022-08-19T02:55:42;11.68;;;8.82;;
4812;SDS011;2420;51.202;8.698;2022-08-19T02:58:11;11.90;;;8.80;;
4812;SDS011;2420;51.202;8.698;2022-08-19T03:00:45;11.70;;;9.18;;
4812;SDS011;2420;51.202;8.698;2022-08-19T03:03:13;12.57;;;8.73;;
4812;SDS011;2420;51.202;8.698;2022-08-19T03:05:39;9.73;;;8.30;;
4812;SDS011;2420;51.202;8.698;2022-08-19T03:08:05;10.95;;;8.55;;
4812;SDS011;2420;51.202;8.698;2022-08-19T03:10:31;11.35;;;8.18;;
4812;SDS011;2420;51.202;8.698;2022-08-19T03:12:57;9.88;;;7.55;;
4812;SDS011;2420;51.202;8.698;2022-08-19T03:15:23;8.75;;;7.32;;
4812;SDS011;2420;51.202;8.698;2022-08-19T03:17:49;8.98;;;7.43;;
4812;SDS011;2420;51.202;8.698;2022-08-19T03:20:14;10.60;;;8.32;;
4812;SDS011;2420;51.202;8.698;2022-08-19T03:22:40;10.85;;;7.47;;
4812;SDS011;2420;51.202;8.698;2022-08-19T03:25:05;8.68;;;7.38;;
4812;SDS011;2420;51.202;8.698;2022-08-19T03:27:31;8.77;;;7.85;;
4812;SDS011;2420;51.202;8.698;2022-08-19T03:29:57;9.07;;;8.15;;
4812;SDS011;2420;51.202;8.698;2022-08-19T03:32:22;10.68;;;7.80;;
4812;SDS011;2420;51.202;8.698;2022-08-19T03:34:47;9.48;;;7.63;;
4812;SDS011;2420;51.202;8.698;2022-08-19T03:37:14;9.32;;;7.28;;
4812;SDS011;2420;51.202;8.698;2022-08-19T03:39:40;8.57;;;7.47;;
4812;SDS011;2420;51.202;8.698;2022-08-19T03:42:07;9.13;;;7.68;;
4812;SDS011;2420;51.202;8.698;2022-08-19T03:44:33;11.35;;;8.18;;
4812;SDS011;2420;51.202;8.698;2022-08-19T03:47:01;9.80;;;7.82;;
4812;SDS011;2420;51.202;8.698;2022-08-19T03:49:28;10.68;;;8.23;;
4812;SDS011;2420;51.202;8.698;2022-08-19T03:51:56;10.70;;;8.13;;
4812;SDS011;2420;51.202;8.698;2022-08-19T03:54:23;12.07;;;7.43;;
4812;SDS011;2420;51.202;8.698;2022-08-19T03:56:50;11.30;;;8.10;;
4812;SDS011;2420;51.202;8.698;2022-08-19T03:59:18;8.43;;;7.03;;
4812;SDS011;2420;51.202;8.698;2022-08-19T04:01:51;9.52;;;8.05;;
4812;SDS011;2420;51.202;8.698;2022-08-19T04:04:18;9.38;;;7.70;;
4812;SDS011;2420;51.202;8.698;2022-08-19T04:06:43;12.52;;;8.60;;
4812;SDS011;2420;51.202;8.698;2022-08-19T04:09:12;9.50;;;8.07;;
4812;SDS011;2420;51.202;8.698;2022-08-19T04:11:57;10.82;;;7.97;;
4812;SDS011;2420;51.202;8.698;2022-08-19T04:14:24;11.80;;;8.15;;
4812;SDS011;2420;51.202;8.698;2022-08-19T04:16:54;11.63;;;7.82;;
4812;SDS011;2420;51.202;8.698;2022-08-19T04:19:20;9.48;;;8.32;;
4812;SDS011;2420;51.202;8.698;2022-08-19T04:21:47;9.75;;;7.90;;
4812;SDS011;2420;51.202;8.698;2022-08-19T04:24:14;12.88;;;9.35;;
4812;SDS011;2420;51.202;8.698;2022-08-19T04:26:40;10.43;;;7.93;;
4812;SDS011;2420;51.202;8.698;2022-08-19T04:29:07;11.98;;;8.60;;
4812;SDS011;2420;51.202;8.698;2022-08-19T04:31:35;9.68;;;7.75;;
4812;SDS011;2420;51.202;8.698;2022-08-19T04:34:02;11.35;;;8.25;;
4812;SDS011;2420;51.202;8.698;2022-08-19T04:36:35;13.13;;;8.45;;
4812;SDS011;2420;51.202;8.698;2022-08-19T04:39:04;10.20;;;7.90;;
4812;SDS011;2420;51.202;8.698;2022-08-19T04:41:32;8.80;;;7.90;;
4812;SDS011;2420;51.202;8.698;2022-08-19T04:44:17;13.40;;;8.55;;
4812;SDS011;2420;51.202;8.698;2022-08-19T04:46:43;11.15;;;8.60;;
4812;SDS011;2420;51.202;8.698;2022-08-19T04:49:13;10.65;;;8.30;;
4812;SDS011;2420;51.202;8.698;2022-08-19T04:51:42;11.45;;;8.15;;
4812;SDS011;2420;51.202;8.698;2022-08-19T04:54:09;12.05;;;8.43;;
4812;SDS011;2420;51.202;8.698;2022-08-19T04:56:35;11.07;;;8.43;;
4812;SDS011;2420;51.202;8.698;2022-08-19T04:59:01;11.68;;;8.50;;
4812;SDS011;2420;51.202;8.698;2022-08-19T05:01:30;10.63;;;8.50;;
4812;SDS011;2420;51.202;8.698;2022-08-19T05:03:58;10.75;;;8.15;;
4812;SDS011;2420;51.202;8.698;2022-08-19T05:06:25;12.85;;;8.55;;
4812;SDS011;2420;51.202;8.698;2022-08-19T05:08:51;11.38;;;9.20;;
4812;SDS011;2420;51.202;8.698;2022-08-19T05:11:24;10.45;;;8.05;;
4812;SDS011;2420;51.202;8.698;2022-08-19T05:13:51;11.55;;;8.30;;
4812;SDS011;2420;51.202;8.698;2022-08-19T05:16:18;9.07;;;7.93;;
4812;SDS011;2420;51.202;8.698;2022-08-19T05:18:45;10.82;;;9.07;;
4812;SDS011;2420;51.202;8.698;2022-08-19T05:21:29;10.77;;;8.77;;
4812;SDS011;2420;51.202;8.698;2022-08-19T05:24:14;12.40;;;8.60;;
4812;SDS011;2420;51.202;8.698;2022-08-19T05:26:43;8.30;;;7.40;;
4812;SDS011;2420;51.202;8.698;2022-08-19T05:29:11;10.38;;;8.40;;
4812;SDS011;2420;51.202;8.698;2022-08-19T05:31:38;11.50;;;7.60;;
4812;SDS011;2420;51.202;8.698;2022-08-19T05:34:04;12.32;;;7.95;;
4812;SDS011;2420;51.202;8.698;2022-08-19T05:36:33;11.70;;;8.60;;
4812;SDS011;2420;51.202;8.698;2022-08-19T05:39:02;10.52;;;8.63;;
4812;SDS011;2420;51.202;8.698;2022-08-19T05:41:28;11.35;;;8.68;;
4812;SDS011;2420;51.202;8.698;2022-08-19T05:44:00;12.15;;;8.52;;
4812;SDS011;2420;51.202;8.698;2022-08-19T05:46:27;9.80;;;8.38;;
4812;SDS011;2420;51.202;8.698;2022-08-19T05:48:53;11.00;;;9.00;;
4812;SDS011;2420;51.202;8.698;2022-08-19T05:51:21;9.10;;;8.07;;
4812;SDS011;2420;51.202;8.698;2022-08-19T05:53:47;10.60;;;8.00;;
4812;SDS011;2420;51.202;8.698;2022-08-19T05:56:14;10.52;;;8.57;;
4812;SDS011;2420;51.202;8.698;2022-08-19T05:58:41;11.43;;;8.90;;
4812;SDS011;2420;51.202;8.698;2022-08-19T06:01:12;9.23;;;8.27;;
4812;SDS011;2420;51.202;8.698;2022-08-19T06:03:39;10.95;;;8.95;;
4812;SDS011;2420;51.202;8.698;2022-08-19T06:06:06;11.43;;;8.43;;
4812;SDS011;2420;51.202;8.698;2022-08-19T06:08:33;8.40;;;7.05;;
4812;SDS011;2420;51.202;8.698;2022-08-19T06:13:44;8.82;;;7.38;;
4812;SDS011;2420;51.202;8.698;2022-08-19T06:16:12;8.05;;;6.22;;
4812;SDS011;2420;51.202;8.698;2022-08-19T06:18:44;7.00;;;5.85;;
4812;SDS011;2420;51.202;8.698;2022-08-19T06:21:10;7.03;;;5.18;;
4812;SDS011;2420;51.202;8.698;2022-08-19T06:23:35;6.47;;;5.47;;
4812;SDS011;2420;51.202;8.698;2022-08-19T06:26:01;6.68;;;4.88;;
4812;SDS011;2420;51.202;8.698;2022-08-19T06:28:26;7.60;;;5.40;;
4812;SDS011;2420;51.202;8.698;2022-08-19T06:30:52;7.38;;;4.90;;
4812;SDS011;2420;51.202;8.698;2022-08-19T06:33:17;5.57;;;4.75;;
4812;SDS011;2420;51.202;8.698;2022-08-19T06:35:43;9.75;;;5.57;;
4812;SDS011;2420;51.202;8.698;2022-08-19T06:38:08;7.75;;;5.00;;
4812;SDS011;2420;51.202;8.698;2022-08-19T06:40:34;5.97;;;4.75;;
4812;SDS011;2420;51.202;8.698;2022-08-19T06:43:01;6.85;;;4.78;;
4812;SDS011;2420;51.202;8.698;2022-08-19T06:45:27;6.25;;;4.70;;
4812;SDS011;2420;51.202;8.698;2022-08-19T06:47:53;5.45;;;4.18;;
4812;SDS011;2420;51.202;8.698;2022-08-19T06:50:21;6.13;;;4.60;;
4812;SDS011;2420;51.202;8.698;2022-08-19T06:52:48;4.70;;;4.07;;
4812;SDS011;2420;51.202;8.698;2022-08-19T06:55:14;6.15;;;4.40;;
4812;SDS011;2420;51.202;8.698;2022-08-19T06:57:40;5.10;;;4.60;;
4812;SDS011;2420;51.202;8.698;2022-08-19T07:00:07;5.50;;;4.53;;
4812;SDS011;2420;51.202;8.698;2022-08-19T07:02:39;5.10;;;4.15;;
4812;SDS011;2420;51.202;8.698;2022-08-19T07:05:05;5.80;;;4.35;;
4812;SDS011;2420;51.202;8.698;2022-08-19T07:07:31;4.82;;;4.10;;
4812;SDS011;2420;51.202;8.698;2022-08-19T07:09:57;6.65;;;4.50;;
4812;SDS011;2420;51.202;8.698;2022-08-19T07:12:23;5.03;;;4.40;;
4812;SDS011;2420;51.202;8.698;2022-08-19T07:14:48;8.73;;;4.18;;
4812;SDS011;2420;51.202;8.698;2022-08-19T07:17:14;18.75;;;5.30;;
4812;SDS011;2420;51.202;8.698;2022-08-19T07:19:40;5.22;;;4.57;;
4812;SDS011;2420;51.202;8.698;2022-08-19T07:22:07;5.50;;;4.20;;
4812;SDS011;2420;51.202;8.698;2022-08-19T07:24:34;4.38;;;3.92;;
4812;SDS011;2420;51.202;8.698;2022-08-19T07:27:01;6.22;;;4.25;;
4812;SDS011;2420;51.202;8.698;2022-08-19T07:29:29;5.22;;;4.05;;
4812;SDS011;2420;51.202;8.698;2022-08-19T07:31:57;5.80;;;4.30;;
4812;SDS011;2420;51.202;8.698;2022-08-19T07:34:24;6.60;;;4.15;;
4812;SDS011;2420;51.202;8.698;2022-08-19T07:36:50;5.10;;;4.60;;
4812;SDS011;2420;51.202;8.698;2022-08-19T07:39:18;4.75;;;4.30;;
4812;SDS011;2420;51.202;8.698;2022-08-19T07:41:46;7.43;;;4.72;;
4812;SDS011;2420;51.202;8.698;2022-08-19T07:44:13;5.78;;;4.85;;
4812;SDS011;2420;51.202;8.698;2022-08-19T07:46:40;5.68;;;4.65;;
4812;SDS011;2420;51.202;8.698;2022-08-19T07:49:09;5.07;;;4.53;;
4812;SDS011;2420;51.202;8.698;2022-08-19T07:51:44;5.43;;;4.22;;
4812;SDS011;2420;51.202;8.698;2022-08-19T07:54:11;6.03;;;4.50;;
4812;SDS011;2420;51.202;8.698;2022-08-19T07:56:36;6.53;;;4.05;;
4812;SDS011;2420;51.202;8.698;2022-08-19T07:59:02;6.25;;;4.32;;
4812;SDS011;2420;51.202;8.698;2022-08-19T08:01:28;6.07;;;4.53;;
4812;SDS011;2420;51.202;8.698;2022-08-19T08:03:54;5.00;;;4.50;;
4812;SDS011;2420;51.202;8.698;2022-08-19T08:06:40;5.55;;;4.55;;
4812;SDS011;2420;51.202;8.698;2022-08-19T08:09:31;6.03;;;4.32;;
4812;SDS011;2420;51.202;8.698;2022-08-19T08:12:01;5.22;;;3.72;;
4812;SDS011;2420;51.202;8.698;2022-08-19T08:15:10;4.45;;;3.95;;
4812;SDS011;2420;51.202;8.698;2022-08-19T08:17:30;6.03;;;3.95;;
4812;SDS011;2420;51.202;8.698;2022-08-19T08:19:56;5.78;;;4.68;;
4812;SDS011;2420;51.202;8.698;2022-08-19T08:22:22;5.78;;;4.22;;
4812;SDS011;2420;51.202;8.698;2022-08-19T08:27:41;5.05;;;4.13;;
4812;SDS011;2420;51.202;8.698;2022-08-19T08:30:09;8.90;;;4.30;;
4812;SDS011;2420;51.202;8.698;2022-08-19T08:32:36;5.57;;;4.18;;
4812;SDS011;2420;51.202;8.698;2022-08-19T08:35:07;5.53;;;4.05;;
4812;SDS011;2420;51.202;8.698;2022-08-19T08:37:35;4.03;;;3.58;;
4812;SDS011;2420;51.202;8.698;2022-08-19T08:40:07;4.35;;;3.85;;
4812;SDS011;2420;51.202;8.698;2022-08-19T08:43:11;4.35;;;3.65;;
4812;SDS011;2420;51.202;8.698;2022-08-19T08:45:45;5.07;;;4.30;;
4812;SDS011;2420;51.202;8.698;2022-08-19T08:48:24;4.93;;;4.25;;
4812;SDS011;2420;51.202;8.698;2022-08-19T08:50:57;4.20;;;3.78;;
4812;SDS011;2420;51.202;8.698;2022-08-19T08:53:24;5.25;;;4.22;;
4812;SDS011;2420;51.202;8.698;2022-08-19T08:55:51;7.25;;;4.20;;
4812;SDS011;2420;51.202;8.698;2022-08-19T08:58:19;4.40;;;4.00;;
4812;SDS011;2420;51.202;8.698;2022-08-19T09:00:50;4.47;;;3.70;;
4812;SDS011;2420;51.202;8.698;2022-08-19T09:03:17;4.55;;;4.13;;
4812;SDS011;2420;51.202;8.698;2022-08-19T09:06:01;5.35;;;4.20;;
4812;SDS011;2420;51.202;8.698;2022-08-19T09:08:45;4.28;;;3.88;;
4812;SDS011;2420;51.202;8.698;2022-08-19T09:11:51;6.10;;;4.50;;
4812;SDS011;2420;51.202;8.698;2022-08-19T09:14:34;4.63;;;4.07;;
4812;SDS011;2420;51.202;8.698;2022-08-19T09:17:23;4.82;;;4.25;;
4812;SDS011;2420;51.202;8.698;2022-08-19T09:22:29;6.07;;;4.50;;
4812;SDS011;2420;51.202;8.698;2022-08-19T09:24:55;5.63;;;4.32;;
4812;SDS011;2420;51.202;8.698;2022-08-19T09:27:21;4.70;;;4.20;;
4812;SDS011;2420;51.202;8.698;2022-08-19T09:29:49;6.10;;;4.53;;
4812;SDS011;2420;51.202;8.698;2022-08-19T09:32:15;5.00;;;4.60;;
4812;SDS011;2420;51.202;8.698;2022-08-19T09:34:42;5.20;;;4.20;;
4812;SDS011;2420;51.202;8.698;2022-08-19T09:37:08;5.35;;;4.65;;
4812;SDS011;2420;51.202;8.698;2022-08-19T09:39:33;4.65;;;4.22;;
4812;SDS011;2420;51.202;8.698;2022-08-19T09:41:59;5.55;;;4.70;;
4812;SDS011;2420;51.202;8.698;2022-08-19T09:44:24;5.05;;;4.55;;
4812;SDS011;2420;51.202;8.698;2022-08-19T09:46:50;5.22;;;4.72;;
4812;SDS011;2420;51.202;8.698;2022-08-19T09:49:16;5.07;;;4.53;;
4812;SDS011;2420;51.202;8.698;2022-08-19T09:51:43;4.90;;;4.47;;
4812;SDS011;2420;51.202;8.698;2022-08-19T09:54:09;6.03;;;4.63;;
4812;SDS011;2420;51.202;8.698;2022-08-19T09:56:34;5.03;;;4.32;;
4812;SDS011;2420;51.202;8.698;2022-08-19T09:59:00;5.13;;;4.63;;
4812;SDS011;2420;51.202;8.698;2022-08-19T10:01:29;5.70;;;4.85;;
4812;SDS011;2420;51.202;8.698;2022-08-19T10:03:56;5.75;;;4.63;;
4812;SDS011;2420;51.202;8.698;2022-08-19T10:06:24;6.20;;;5.07;;
4812;SDS011;2420;51.202;8.698;2022-08-19T10:08:54;5.30;;;4.80;;
4812;SDS011;2420;51.202;8.698;2022-08-19T10:11:20;6.30;;;5.05;;
4812;SDS011;2420;51.202;8.698;2022-08-19T10:13:46;5.95;;;4.95;;
4812;SDS011;2420;51.202;8.698;2022-08-19T10:16:14;5.10;;;4.60;;
4812;SDS011;2420;51.202;8.698;2022-08-19T10:18:42;5.38;;;4.88;;
4812;SDS011;2420;51.202;8.698;2022-08-19T10:21:16;4.88;;;4.47;;
4812;SDS011;2420;51.202;8.698;2022-08-19T10:23:54;5.00;;;4.50;;
4812;SDS011;2420;51.202;8.698;2022-08-19T10:26:26;5.22;;;4.45;;
4812;SDS011;2420;51.202;8.698;2022-08-19T10:28:53;4.75;;;4.28;;
4812;SDS011;2420;51.202;8.698;2022-08-19T10:31:20;5.90;;;5.22;;
4812;SDS011;2420;51.202;8.698;2022-08-19T10:33:49;5.70;;;4.60;;
4812;SDS011;2420;51.202;8.698;2022-08-19T10:36:17;5.85;;;5.00;;
4812;SDS011;2420;51.202;8.698;2022-08-19T10:38:44;5.25;;;4.75;;
4812;SDS011;2420;51.202;8.698;2022-08-19T10:41:25;5.43;;;4.32;;
4812;SDS011;2420;51.202;8.698;2022-08-19T10:43:57;5.00;;;4.55;;
4812;SDS011;2420;51.202;8.698;2022-08-19T10:46:25;4.55;;;4.15;;
4812;SDS011;2420;51.202;8.698;2022-08-19T10:48:52;5.25;;;4.75;;
4812;SDS011;2420;51.202;8.698;2022-08-19T10:51:18;5.07;;;4.68;;
4812;SDS011;2420;51.202;8.698;2022-08-19T10:54:03;5.07;;;4.57;;
4812;SDS011;2420;51.202;8.698;2022-08-19T10:56:29;6.53;;;4.50;;
4812;SDS011;2420;51.202;8.698;2022-08-19T10:59:19;4.80;;;4.30;;
4812;SDS011;2420;51.202;8.698;2022-08-19T11:01:47;5.07;;;4.63;;
4812;SDS011;2420;51.202;8.698;2022-08-19T11:04:13;4.70;;;4.30;;
4812;SDS011;2420;51.202;8.698;2022-08-19T11:06:43;5.65;;;4.43;;
4812;SDS011;2420;51.202;8.698;2022-08-19T11:09:12;5.95;;;4.53;;
4812;SDS011;2420;51.202;8.698;2022-08-19T11:11:42;5.18;;;4.65;;
4812;SDS011;2420;51.202;8.698;2022-08-19T11:14:09;5.40;;;4.68;;
4812;SDS011;2420;51.202;8.698;2022-08-19T11:16:39;6.32;;;4.88;;
4812;SDS011;2420;51.202;8.698;2022-08-19T11:19:06;4.43;;;4.05;;
4812;SDS011;2420;51.202;8.698;2022-08-19T11:21:34;4.35;;;3.95;;
4812;SDS011;2420;51.202;8.698;2022-08-19T11:24:12;4.60;;;4.20;;
4812;SDS011;2420;51.202;8.698;2022-08-19T11:26:45;5.22;;;4.72;;
4812;SDS011;2420;51.202;8.698;2022-08-19T11:29:16;5.68;;;4.70;;
4812;SDS011;2420;51.202;8.698;2022-08-19T11:31:45;5.15;;;4.70;;
4812;SDS011;2420;51.202;8.698;2022-08-19T11:34:14;5.45;;;4.95;;
4812;SDS011;2420;51.202;8.698;2022-08-19T11:36:43;5.38;;;4.88;;
4812;SDS011;2420;51.202;8.698;2022-08-19T11:39:11;5.32;;;4.78;;
4812;SDS011;2420;51.202;8.698;2022-08-19T11:41:38;5.45;;;4.90;;
4812;SDS011;2420;51.202;8.698;2022-08-19T11:44:03;5.18;;;4.68;;
4812;SDS011;2420;51.202;8.698;2022-08-19T11:46:30;5.43;;;4.57;;
4812;SDS011;2420;51.202;8.698;2022-08-19T11:48:59;5.10;;;4.70;;
4812;SDS011;2420;51.202;8.698;2022-08-19T11:51:25;6.20;;;4.82;;
4812;SDS011;2420;51.202;8.698;2022-08-19T11:53:53;6.18;;;5.05;;
4812;SDS011;2420;51.202;8.698;2022-08-19T11:56:20;5.22;;;4.68;;
4812;SDS011;2420;51.202;8.698;2022-08-19T11:58:46;5.68;;;5.18;;
4812;SDS011;2420;51.202;8.698;2022-08-19T12:01:13;5.47;;;5.00;;
4812;SDS011;2420;51.202;8.698;2022-08-19T12:03:41;6.10;;;5.45;;
4812;SDS011;2420;51.202;8.698;2022-08-19T12:06:08;5.47;;;4.97;;
4812;SDS011;2420;51.202;8.698;2022-08-19T12:08:38;5.30;;;4.90;;
4812;SDS011;2420;51.202;8.698;2022-08-19T12:11:04;5.18;;;4.78;;
4812;SDS011;2420;51.202;8.698;2022-08-19T12:13:32;7.25;;;4.93;;
4812;SDS011;2420;51.202;8.698;2022-08-19T12:15:58;5.47;;;5.00;;
4812;SDS011;2420;51.202;8.698;2022-08-19T12:18:24;5.80;;;5.30;;
4812;SDS011;2420;51.202;8.698;2022-08-19T12:20:50;6.47;;;5.30;;
4812;SDS011;2420;51.202;8.698;2022-08-19T12:23:19;6.40;;;5.80;;
4812;SDS011;2420;51.202;8.698;2022-08-19T12:25:46;5.93;;;5.35;;
4812;SDS011;2420;51.202;8.698;2022-08-19T12:28:20;6.20;;;5.65;;
4812;SDS011;2420;51.202;8.698;2022-08-19T12:30:48;5.88;;;5.28;;
4812;SDS011;2420;51.202;8.698;2022-08-19T12:33:16;5.78;;;5.28;;
4812;SDS011;2420;51.202;8.698;2022-08-19T12:35:43;5.80;;;5.30;;
4812;SDS011;2420;51.202;8.698;2022-08-19T12:38:11;6.20;;;5.70;;
4812;SDS011;2420;51.202;8.698;2022-08-19T12:40:37;7.78;;;5.72;;
4812;SDS011;2420;51.202;8.698;2022-08-19T12:43:05;6.85;;;6.05;;
4812;SDS011;2420;51.202;8.698;2022-08-19T12:45:31;6.30;;;5.70;;
4812;SDS011;2420;51.202;8.698;2022-08-19T12:47:56;7.35;;;5.57;;
4812;SDS011;2420;51.202;8.698;2022-08-19T12:50:23;5.47;;;5.03;;
4812;SDS011;2420;51.202;8.698;2022-08-19T12:52:48;6.40;;;5.80;;
4812;SDS011;2420;51.202;8.698;2022-08-19T12:55:14;5.43;;;4.93;;
4812;SDS011;2420;51.202;8.698;2022-08-19T12:57:40;5.22;;;4.72;;
4812;SDS011;2420;51.202;8.698;2022-08-19T13:00:13;6.22;;;5.72;;
4812;SDS011;2420;51.202;8.698;2022-08-19T13:02:42;6.13;;;5.53;;
4812;SDS011;2420;51.202;8.698;2022-08-19T13:05:11;6.13;;;5.60;;
4812;SDS011;2420;51.202;8.698;2022-08-19T13:07:44;6.18;;;5.68;;
4812;SDS011;2420;51.202;8.698;2022-08-19T13:10:11;5.97;;;5.45;;
4812;SDS011;2420;51.202;8.698;2022-08-19T13:12:43;5.38;;;4.88;;
4812;SDS011;2420;51.202;8.698;2022-08-19T13:15:11;4.63;;;4.22;;
4812;SDS011;2420;51.202;8.698;2022-08-19T13:17:38;5.90;;;4.43;;
4812;SDS011;2420;51.202;8.698;2022-08-19T13:20:04;5.28;;;4.78;;
4812;SDS011;2420;51.202;8.698;2022-08-19T13:22:32;5.90;;;4.53;;
4812;SDS011;2420;51.202;8.698;2022-08-19T13:24:58;5.43;;;4.88;;
4812;SDS011;2420;51.202;8.698;2022-08-19T13:27:24;7.60;;;4.65;;
4812;SDS011;2420;51.202;8.698;2022-08-19T13:29:49;6.78;;;4.70;;
4812;SDS011;2420;51.202;8.698;2022-08-19T13:32:33;5.97;;;5.30;;
4812;SDS011;2420;51.202;8.698;2022-08-19T13:35:18;5.57;;;5.07;;
4812;SDS011;2420;51.202;8.698;2022-08-19T13:37:43;4.65;;;4.18;;
4812;SDS011;2420;51.202;8.698;2022-08-19T13:42:44;4.60;;;4.20;;
4812;SDS011;2420;51.202;8.698;2022-08-19T13:45:12;6.53;;;4.88;;
4812;SDS011;2420;51.202;8.698;2022-08-19T13:47:40;5.95;;;4.97;;
4812;SDS011;2420;51.202;8.698;2022-08-19T13:50:14;10.90;;;4.95;;
4812;SDS011;2420;51.202;8.698;2022-08-19T13:52:42;5.28;;;4.80;;
4812;SDS011;2420;51.202;8.698;2022-08-19T13:55:09;5.25;;;4.85;;
4812;SDS011;2420;51.202;8.698;2022-08-19T13:57:36;5.40;;;4.90;;
4812;SDS011;2420;51.202;8.698;2022-08-19T14:00:06;5.30;;;4.85;;
4812;SDS011;2420;51.202;8.698;2022-08-19T14:02:35;5.68;;;5.10;;
4812;SDS011;2420;51.202;8.698;2022-08-19T14:05:03;5.80;;;5.10;;
4812;SDS011;2420;51.202;8.698;2022-08-19T14:07:30;6.20;;;5.60;;
4812;SDS011;2420;51.202;8.698;2022-08-19T14:09:55;7.82;;;5.53;;
4812;SDS011;2420;51.202;8.698;2022-08-19T14:12:21;5.65;;;5.13;;
4812;SDS011;2420;51.202;8.698;2022-08-19T14:14:47;5.78;;;5.28;;
4812;SDS011;2420;51.202;8.698;2022-08-19T14:17:13;5.88;;;5.20;;
4812;SDS011;2420;51.202;8.698;2022-08-19T14:19:40;4.97;;;4.57;;
4812;SDS011;2420;51.202;8.698;2022-08-19T14:22:06;5.75;;;5.20;;
4812;SDS011;2420;51.202;8.698;2022-08-19T14:24:32;5.72;;;5.22;;
4812;SDS011;2420;51.202;8.698;2022-08-19T14:26:58;5.68;;;5.10;;
4812;SDS011;2420;51.202;8.698;2022-08-19T14:29:23;5.18;;;4.68;;
4812;SDS011;2420;51.202;8.698;2022-08-19T14:31:49;5.60;;;5.10;;
4812;SDS011;2420;51.202;8.698;2022-08-19T14:34:15;5.57;;;4.82;;
4812;SDS011;2420;51.202;8.698;2022-08-19T14:36:40;5.38;;;4.88;;
4812;SDS011;2420;51.202;8.698;2022-08-19T14:39:06;5.50;;;4.90;;
4812;SDS011;2420;51.202;8.698;2022-08-19T14:41:34;5.63;;;5.10;;
4812;SDS011;2420;51.202;8.698;2022-08-19T14:44:00;5.47;;;4.90;;
4812;SDS011;2420;51.202;8.698;2022-08-19T14:46:27;5.82;;;4.45;;
4812;SDS011;2420;51.202;8.698;2022-08-19T14:48:54;5.28;;;4.78;;
4812;SDS011;2420;51.202;8.698;2022-08-19T14:51:21;5.88;;;5.28;;
4812;SDS011;2420;51.202;8.698;2022-08-19T14:53:49;6.10;;;5.50;;
4812;SDS011;2420;51.202;8.698;2022-08-19T14:56:16;7.53;;;5.50;;
4812;SDS011;2420;51.202;8.698;2022-08-19T14:58:44;6.30;;;5.68;;
4812;SDS011;2420;51.202;8.698;2022-08-19T15:01:10;6.25;;;5.55;;
4812;SDS011;2420;51.202;8.698;2022-08-19T15:03:37;6.40;;;5.80;;
4812;SDS011;2420;51.202;8.698;2022-08-19T15:06:04;6.60;;;6.00;;
4812;SDS011;2420;51.202;8.698;2022-08-19T15:08:31;6.65;;;5.75;;
4812;SDS011;2420;51.202;8.698;2022-08-19T15:11:00;6.63;;;5.90;;
4812;SDS011;2420;51.202;8.698;2022-08-19T15:13:27;6.22;;;5.70;;
4812;SDS011;2420;51.202;8.698;2022-08-19T15:15:53;7.22;;;5.50;;
4812;SDS011;2420;51.202;8.698;2022-08-19T15:18:20;6.47;;;5.88;;
4812;SDS011;2420;51.202;8.698;2022-08-19T15:20:47;6.22;;;5.63;;
4812;SDS011;2420;51.202;8.698;2022-08-19T15:23:13;6.97;;;6.20;;
4812;SDS011;2420;51.202;8.698;2022-08-19T15:25:39;6.88;;;6.18;;
4812;SDS011;2420;51.202;8.698;2022-08-19T15:28:06;7.22;;;6.28;;
4812;SDS011;2420;51.202;8.698;2022-08-19T15:30:32;6.05;;;5.53;;